OKBO2: North Canadian River at Britton Rd at OKC, OK

                                SHEF ID:       OKBO2     North Canadian River at Britton
STATION TYPE:

STAGE RIV-FLOW WTR-TEMP DIS-OXY CONDUCT BAT-LOAD
ft cfs F mg/l umho/cm volt
Ccp-Rev Ccp-Rev Ccp-Rev Ccp-Rev Ccp-Rev Ccp-Rev
(America/Chicago)
04/24 00:00 4.79 59 72.95 6.88 836 11.98
04/24 01:00 4.81 62 72.01 6.79 836 11.97
04/24 02:00 ---- ---- ---- ---- ---- ----
04/24 03:00 4.87 70 70.90 6.34 832 11.96
04/24 04:00 4.86 68 70.34 5.81 831 11.96
04/24 05:00 4.89 73 69.35 6.05 828 11.95
04/24 06:00 4.90 74 68.86 6.04 827 11.92
04/24 07:00 4.92 77 68.11 6.26 823 11.90
04/24 08:00 4.92 77 67.82 6.07 822 12.07
04/24 09:00 4.92 77 67.57 6.51 821 12.91
04/24 10:00 4.91 75 68.16 6.91 823 13.36
04/24 11:00 4.92 77 69.94 7.42 827 13.01
04/24 12:00 4.91 75 70.84 7.84 831 12.82
04/24 13:00 4.88 71 71.10 8.20 837 12.85
04/24 14:00 4.93 78 71.76 8.55 845 12.93
04/24 15:00 4.93 78 74.10 9.10 860 12.87
04/24 16:00 4.94 80 74.39 9.29 876 12.73
04/24 17:00 4.95 81 74.23 9.33 908 12.82
04/24 18:00 4.97 84 74.14 9.22 936 12.80
04/24 19:00 4.98 86 74.05 9.15 971 12.88
04/24 20:00 4.98 86 73.58 8.89 1009 12.73
04/24 21:00 4.98 86 73.00 8.27 1034 12.40
04/24 22:00 4.99 88 72.25 7.72 1045 12.21
04/24 23:00 5.00 89 71.47 7.36 1051 12.08
Data processed at Sat 25Apr2026 04:25 GMT

NOTICE: If you are parsing this page

Please convert to using our Data API. Starting early 2026 we will be migrating to: https://water.usace.army.mil with modern pages rendered in JavaScript. When this migration completes you will no longer be able to scrape this page! CWMSDataAPI (CDA)

Timeseries IDs (TSIDs)

TSIDs used from left to right in the data table
OKC3.Stage.Inst.1Hour.0.Ccp-Rev
OKC3.Flow.Inst.1Hour.0.Ccp-Rev
OKC3.Temp-Water.Inst.1Hour.0.Ccp-Rev
OKC3.Conc-DO.Inst.1Hour.0.Ccp-Rev
OKC3.Cond-Water.Inst.1Hour.0.Ccp-Rev
OKC3.Volt-Battery Load.Inst.1Hour.0.Ccp-Rev

                            

All information presented herein is the property of the government of the United States of America and may be revised or deleted at any time without prior notice. Dissemination of this information without the expressed written consent of the Public Affairs Office, Tulsa District U.S. Army Corps of Engineers is strictly prohibited. These data are gathered electronically and, as presented, have NOT undergone any form of quality control. These data are NOT guaranteed to be valid or correct.